Time;durP1;ratioP1;P1;durP2;ratioP2;P2;SDS_P1;SDS_P2;PMS_P1;PMS_P2;Temp;Humidity;BMP_temperature;BMP_pressure;BME280_temperature;BME280_humidity;BME280_pressure;Samples;Min_cycle;Max_cycle;Signal;HPM_P1;HPM_P2
2021/12/21 00:00:12;;;;;;;6.75;3.55;;;8.70;99.90;;;;;;5002876;28;20124;-70
2021/12/21 00:02:40;;;;;;;8.18;3.88;;;8.60;99.90;;;;;;4964265;28;20422;-71
2021/12/21 00:05:08;;;;;;;5.90;3.40;;;8.50;99.90;;;;;;4987920;28;20039;-70
2021/12/21 00:07:36;;;;;;;7.25;3.95;;;8.40;99.90;;;;;;4990813;28;20419;-71
2021/12/21 00:10:02;;;;;;;5.32;3.58;;;8.30;99.90;;;;;;4972697;28;20044;-70
2021/12/21 00:12:31;;;;;;;8.38;3.83;;;8.30;99.90;;;;;;4971243;28;20042;-72
2021/12/21 00:15:02;;;;;;;7.93;4.05;;;8.30;99.90;;;;;;5004203;28;20108;-74
2021/12/21 00:20:24;;;;;;;6.63;3.70;;;8.30;99.90;;;;;;4988650;28;20083;-72
2021/12/21 00:25:21;;;;;;;9.85;4.53;;;8.30;99.90;;;;;;4970266;28;20581;-71
2021/12/21 00:27:49;;;;;;;5.95;3.92;;;8.40;99.90;;;;;;4971177;28;20039;-72
2021/12/21 00:30:16;;;;;;;8.18;4.18;;;8.50;99.90;;;;;;4958644;28;20498;-70
2021/12/21 00:32:43;;;;;;;8.52;4.45;;;8.60;99.90;;;;;;4969355;28;20039;-70
2021/12/21 00:35:11;;;;;;;7.22;4.65;;;8.60;99.90;;;;;;4976136;28;20031;-71
2021/12/21 00:37:40;;;;;;;7.10;4.75;;;8.60;99.90;;;;;;5009097;28;20548;-70
2021/12/21 00:40:09;;;;;;;5.43;3.95;;;8.60;99.90;;;;;;5027109;28;20073;-71
2021/12/21 00:42:35;;;;;;;8.93;4.70;;;8.50;99.90;;;;;;4998818;28;20042;-72
2021/12/21 00:45:02;;;;;;;8.82;4.43;;;8.40;99.90;;;;;;4996497;28;20393;-70
2021/12/21 00:47:28;;;;;;;6.68;4.55;;;8.30;99.90;;;;;;4998244;28;20454;-72
2021/12/21 00:50:00;;;;;;;8.80;4.53;;;8.20;99.90;;;;;;4977053;28;20133;-71
2021/12/21 00:52:26;;;;;;;7.35;4.45;;;8.00;99.90;;;;;;5010148;28;20401;-70
2021/12/21 00:54:52;;;;;;;9.95;4.55;;;8.00;99.90;;;;;;4977714;28;20042;-72
2021/12/21 00:57:19;;;;;;;8.02;4.57;;;7.90;99.90;;;;;;5011291;28;20519;-71
2021/12/21 00:59:45;;;;;;;8.00;4.72;;;8.00;99.90;;;;;;4996657;28;20541;-72
2021/12/21 01:02:12;;;;;;;9.15;4.85;;;8.10;99.90;;;;;;4975133;28;20146;-69
2021/12/21 01:04:47;;;;;;;7.85;4.80;;;8.00;99.90;;;;;;5010114;28;20093;-70
2021/12/21 01:12:51;;;;;;;7.43;4.75;;;7.80;99.90;;;;;;4982101;28;20036;-70
2021/12/21 01:15:30;;;;;;;7.75;4.47;;;7.80;99.90;;;;;;4973654;28;20050;-71
2021/12/21 01:18:04;;;;;;;9.23;5.10;;;7.70;99.90;;;;;;4957742;28;20476;-69
2021/12/21 01:28:19;;;;;;;9.68;4.88;;;7.80;99.90;;;;;;4981444;28;20046;-70
2021/12/21 01:31:06;;;;;;;9.35;4.75;;;7.80;99.90;;;;;;4984410;28;20049;-70
2021/12/21 01:33:59;;;;;;;11.05;5.30;;;7.80;99.90;;;;;;5031957;28;20057;-70
2021/12/21 01:39:02;;;;;;;10.23;5.60;;;7.90;99.90;;;;;;4988096;28;20050;-70
2021/12/21 01:42:20;;;;;;;9.48;5.22;;;7.80;99.90;;;;;;4993680;28;20053;-70
2021/12/21 01:49:41;;;;;;;10.40;5.10;;;7.90;99.90;;;;;;4999361;28;20041;-70
2021/12/21 01:52:12;;;;;;;8.52;4.82;;;8.00;99.90;;;;;;5030960;28;20061;-71
2021/12/21 01:54:37;;;;;;;8.75;5.10;;;8.00;99.90;;;;;;4983354;28;20125;-70
2021/12/21 01:57:05;;;;;;;7.45;4.97;;;7.90;99.90;;;;;;4987226;28;20078;-71
2021/12/21 01:59:33;;;;;;;10.98;5.82;;;8.00;99.90;;;;;;4979920;28;20038;-72
2021/12/21 02:02:00;;;;;;;7.10;4.50;;;8.00;99.90;;;;;;4984760;28;20042;-70
2021/12/21 02:04:26;;;;;;;7.22;4.60;;;8.00;99.90;;;;;;4982353;28;20050;-70
2021/12/21 02:06:52;;;;;;;9.10;5.35;;;8.00;99.90;;;;;;4975432;28;20038;-69
2021/12/21 02:09:19;;;;;;;8.80;5.15;;;7.90;99.90;;;;;;4985297;28;20038;-69
2021/12/21 02:11:48;;;;;;;13.38;5.32;;;8.00;99.90;;;;;;4986851;28;20496;-70
2021/12/21 02:14:15;;;;;;;9.05;5.45;;;8.00;99.90;;;;;;4979584;28;20050;-70
2021/12/21 02:16:53;;;;;;;9.40;5.15;;;8.10;99.90;;;;;;5013418;28;20061;-71
2021/12/21 02:19:34;;;;;;;12.63;5.63;;;8.20;99.90;;;;;;4984276;28;20101;-70
2021/12/21 02:22:14;;;;;;;11.77;5.40;;;8.30;99.90;;;;;;4978942;28;20088;-69
2021/12/21 02:24:57;;;;;;;9.32;4.80;;;8.30;99.90;;;;;;5004504;28;20485;-70
2021/12/21 02:27:30;;;;;;;7.80;5.30;;;8.20;99.90;;;;;;5032479;28;20054;-70
2021/12/21 02:29:56;;;;;;;9.63;5.38;;;8.30;99.90;;;;;;4995475;28;20058;-69
2021/12/21 02:32:23;;;;;;;10.43;6.25;;;8.30;99.90;;;;;;5013818;28;22638;-71
2021/12/21 02:34:50;;;;;;;7.00;5.15;;;8.10;99.90;;;;;;4996984;28;20037;-70
2021/12/21 02:37:16;;;;;;;9.30;5.25;;;8.10;99.90;;;;;;5002761;28;20091;-69
2021/12/21 02:39:42;;;;;;;9.60;5.68;;;8.00;99.90;;;;;;5032140;28;20065;-69
2021/12/21 02:42:09;;;;;;;11.50;5.97;;;7.90;99.90;;;;;;5000668;28;20092;-70
2021/12/21 02:44:37;;;;;;;7.78;5.20;;;7.90;99.90;;;;;;4999697;28;20060;-70
2021/12/21 02:47:04;;;;;;;11.50;4.85;;;8.10;99.90;;;;;;5026839;28;20480;-70
2021/12/21 02:49:30;;;;;;;8.18;5.45;;;8.10;99.90;;;;;;4986296;28;20972;-71
2021/12/21 02:51:57;;;;;;;8.93;5.50;;;8.00;99.90;;;;;;4980004;28;20042;-71
2021/12/21 02:54:23;;;;;;;8.60;5.05;;;8.00;99.90;;;;;;4977245;28;20553;-69
2021/12/21 02:56:49;;;;;;;8.32;5.38;;;8.00;99.90;;;;;;4982088;28;20034;-71
2021/12/21 02:59:15;;;;;;;11.32;5.00;;;8.00;99.90;;;;;;5003388;28;20038;-70
2021/12/21 03:01:41;;;;;;;8.27;4.90;;;8.00;99.90;;;;;;5016039;28;20038;-70
2021/12/21 03:04:08;;;;;;;9.23;5.15;;;8.00;99.90;;;;;;5009801;28;20046;-70
2021/12/21 03:09:55;;;;;;;11.40;4.80;;;7.90;99.90;;;;;;4980296;28;21642;-71
2021/12/21 03:12:08;;;;;;;9.10;4.72;;;7.90;99.90;;;;;;4975839;28;20763;-70
2021/12/21 03:14:35;;;;;;;10.00;5.25;;;7.90;99.90;;;;;;5025342;28;20038;-70
2021/12/21 03:17:01;;;;;;;9.43;4.93;;;7.90;99.90;;;;;;4979364;28;20047;-71
2021/12/21 03:19:28;;;;;;;8.93;4.78;;;8.00;99.90;;;;;;4980425;28;20122;-71
2021/12/21 03:21:54;;;;;;;6.22;4.60;;;8.00;99.90;;;;;;5008394;28;20438;-70
2021/12/21 03:24:20;;;;;;;6.78;4.60;;;8.00;99.90;;;;;;4960936;28;20071;-69
2021/12/21 03:26:46;;;;;;;11.27;4.60;;;7.90;99.90;;;;;;5012096;28;20049;-70
2021/12/21 03:29:13;;;;;;;7.30;4.68;;;7.80;99.90;;;;;;5009895;28;20078;-71
2021/12/21 03:31:39;;;;;;;11.80;5.32;;;8.00;99.90;;;;;;5008405;28;20034;-70
2021/12/21 03:34:06;;;;;;;12.68;4.55;;;8.00;99.90;;;;;;4993676;28;20341;-71
2021/12/21 03:36:33;;;;;;;8.10;5.03;;;8.00;99.90;;;;;;4989570;28;20088;-70
2021/12/21 03:39:06;;;;;;;9.57;4.45;;;8.00;99.90;;;;;;4985057;28;20125;-71
2021/12/21 03:41:34;;;;;;;7.40;4.63;;;8.10;99.90;;;;;;5000358;28;20042;-71
2021/12/21 03:44:02;;;;;;;7.53;4.80;;;8.20;99.90;;;;;;5015877;28;20504;-69
2021/12/21 03:46:31;;;;;;;8.50;5.03;;;8.20;99.90;;;;;;4997046;28;20039;-71
2021/12/21 03:49:00;;;;;;;9.07;4.72;;;8.20;99.90;;;;;;4994018;28;20054;-71
2021/12/21 03:51:28;;;;;;;9.77;5.30;;;8.20;99.90;;;;;;4995475;28;20030;-70
2021/12/21 03:53:55;;;;;;;7.35;4.40;;;8.20;99.90;;;;;;5012179;28;20038;-70
2021/12/21 03:56:37;;;;;;;8.10;4.70;;;8.10;99.90;;;;;;5000439;28;20042;-70
2021/12/21 03:59:03;;;;;;;6.35;3.85;;;8.10;99.90;;;;;;4997395;28;20382;-70
2021/12/21 04:01:29;;;;;;;6.70;4.38;;;8.00;99.90;;;;;;4999676;28;20046;-70
2021/12/21 04:03:58;;;;;;;10.05;4.40;;;8.10;99.90;;;;;;5018652;28;20546;-70
2021/12/21 04:06:24;;;;;;;7.63;4.07;;;8.10;99.90;;;;;;5028545;28;20037;-69
2021/12/21 04:08:50;;;;;;;8.13;4.28;;;8.10;99.90;;;;;;4999966;28;20438;-71
2021/12/21 04:11:16;;;;;;;8.35;4.40;;;8.10;99.90;;;;;;5026566;28;20050;-70
2021/12/21 04:13:42;;;;;;;6.32;4.00;;;8.10;99.90;;;;;;5007245;28;20038;-70
2021/12/21 04:16:09;;;;;;;7.00;4.20;;;8.10;99.90;;;;;;4998208;28;20105;-70
2021/12/21 04:18:37;;;;;;;7.35;4.10;;;8.00;99.90;;;;;;5012181;28;20079;-71
2021/12/21 04:21:04;;;;;;;7.20;4.25;;;8.00;99.90;;;;;;4996464;28;20076;-70
2021/12/21 04:23:30;;;;;;;8.15;4.80;;;8.30;99.90;;;;;;5001360;28;20045;-74
2021/12/21 04:25:56;;;;;;;8.02;4.95;;;8.30;99.90;;;;;;5031541;28;20031;-71
2021/12/21 04:28:22;;;;;;;9.30;4.97;;;8.30;99.90;;;;;;5016263;28;20037;-69
2021/12/21 04:30:49;;;;;;;9.18;5.07;;;8.30;99.90;;;;;;4995490;28;20030;-70
2021/12/21 04:33:15;;;;;;;8.35;5.05;;;8.20;99.90;;;;;;5028127;28;20945;-71
2021/12/21 04:35:41;;;;;;;11.82;5.95;;;8.10;99.90;;;;;;4999154;28;20038;-70
2021/12/21 04:38:25;;;;;;;8.57;5.30;;;7.90;99.90;;;;;;4997563;28;20038;-71
2021/12/21 04:40:59;;;;;;;9.52;5.38;;;7.80;99.90;;;;;;5009074;28;20110;-70
2021/12/21 04:43:25;;;;;;;13.63;5.60;;;7.80;99.90;;;;;;5014102;28;20027;-70
2021/12/21 04:45:51;;;;;;;11.75;6.57;;;7.70;99.90;;;;;;5025551;28;20026;-70
2021/12/21 04:48:18;;;;;;;9.05;5.63;;;7.80;99.90;;;;;;5030084;28;20060;-71
2021/12/21 04:50:45;;;;;;;7.57;5.07;;;7.80;99.90;;;;;;5032033;28;20034;-69
2021/12/21 04:53:13;;;;;;;8.25;5.25;;;7.80;99.90;;;;;;4994735;28;20409;-70
2021/12/21 04:55:38;;;;;;;9.73;5.55;;;7.80;99.90;;;;;;5034064;28;20459;-70
2021/12/21 04:58:06;;;;;;;9.32;5.07;;;7.80;99.90;;;;;;5002299;28;20042;-70
2021/12/21 05:00:34;;;;;;;8.07;5.07;;;7.90;99.90;;;;;;5002228;28;20034;-70
2021/12/21 05:03:01;;;;;;;9.88;5.10;;;7.90;99.90;;;;;;5033763;28;20132;-69
2021/12/21 05:05:28;;;;;;;8.63;4.80;;;7.90;99.90;;;;;;5030298;28;20543;-70
2021/12/21 05:08:07;;;;;;;7.60;4.28;;;7.90;99.90;;;;;;5000674;28;20400;-70
2021/12/21 05:10:42;;;;;;;11.20;5.18;;;8.00;99.90;;;;;;4996006;28;20490;-71
2021/12/21 05:13:09;;;;;;;7.55;4.50;;;8.00;99.90;;;;;;5032850;28;20054;-70
2021/12/21 05:15:35;;;;;;;7.32;4.55;;;8.00;99.90;;;;;;5001735;28;20030;-71
2021/12/21 05:18:00;;;;;;;5.90;4.20;;;8.10;99.90;;;;;;5034861;28;20037;-71
2021/12/21 05:20:26;;;;;;;11.70;5.05;;;8.10;99.90;;;;;;4996150;28;20034;-70
2021/12/21 05:22:53;;;;;;;8.80;5.13;;;8.10;99.90;;;;;;4996019;28;20041;-70
2021/12/21 05:25:20;;;;;;;9.50;4.85;;;8.00;99.90;;;;;;5001448;28;20050;-71
2021/12/21 05:27:47;;;;;;;7.10;4.90;;;8.00;99.90;;;;;;5004670;28;20034;-70
2021/12/21 05:30:15;;;;;;;8.57;5.13;;;8.00;99.90;;;;;;5001264;28;20089;-70
2021/12/21 05:32:41;;;;;;;9.32;5.13;;;8.00;99.90;;;;;;5007592;28;20117;-69
2021/12/21 05:35:09;;;;;;;9.32;5.15;;;8.00;99.90;;;;;;4991397;28;20045;-69
2021/12/21 05:37:38;;;;;;;9.55;5.32;;;8.00;99.90;;;;;;5036127;28;20133;-70
2021/12/21 05:42:36;;;;;;;10.38;4.93;;;8.20;99.90;;;;;;5004416;28;20570;-73
2021/12/21 05:45:04;;;;;;;8.27;4.85;;;8.20;99.90;;;;;;5005613;28;20128;-72
2021/12/21 05:47:30;;;;;;;10.20;5.15;;;8.20;99.90;;;;;;5036833;28;20042;-70
2021/12/21 05:49:56;;;;;;;9.00;5.05;;;8.20;99.90;;;;;;5002937;28;20125;-71
2021/12/21 05:52:23;;;;;;;11.35;5.88;;;8.20;99.90;;;;;;5000072;28;20058;-69
2021/12/21 05:54:49;;;;;;;10.45;6.00;;;8.30;99.90;;;;;;5002282;28;20038;-71
2021/12/21 05:57:16;;;;;;;12.02;5.97;;;8.30;99.90;;;;;;5029395;28;20097;-70
2021/12/21 05:59:42;;;;;;;10.73;5.68;;;8.30;99.90;;;;;;5033999;28;20591;-71
2021/12/21 06:02:08;;;;;;;10.35;6.13;;;8.30;99.90;;;;;;5032692;28;20082;-71
2021/12/21 06:04:34;;;;;;;9.30;6.05;;;8.20;99.90;;;;;;5015059;28;20113;-70
2021/12/21 06:07:00;;;;;;;10.27;6.57;;;8.20;99.90;;;;;;4999681;28;20053;-71
2021/12/21 06:09:28;;;;;;;10.77;7.20;;;8.30;99.90;;;;;;5000526;28;20038;-70
2021/12/21 06:28:14;;;;;;;11.50;7.20;;;8.30;99.90;;;;;;5005956;28;20064;-69
2021/12/21 06:30:41;;;;;;;12.20;7.95;;;8.30;99.90;;;;;;5004198;28;20080;-70
2021/12/21 06:33:07;;;;;;;13.13;7.30;;;8.30;99.90;;;;;;4991793;28;20076;-71
2021/12/21 06:35:36;;;;;;;14.88;8.38;;;8.40;99.90;;;;;;5006646;28;20037;-70
2021/12/21 06:38:03;;;;;;;10.48;7.63;;;8.40;99.90;;;;;;5001964;28;20038;-70
2021/12/21 06:40:30;;;;;;;12.60;7.85;;;8.40;99.90;;;;;;4993449;28;20034;-70
2021/12/21 06:42:59;;;;;;;10.60;7.68;;;8.40;99.90;;;;;;4990160;28;20034;-70
2021/12/21 06:45:42;;;;;;;15.35;7.57;;;8.30;99.90;;;;;;4982105;28;20039;-73
2021/12/21 06:53:53;;;;;;;17.77;7.53;;;8.10;99.90;;;;;;5002535;28;20034;-71
2021/12/21 06:56:20;;;;;;;13.40;7.85;;;8.10;99.90;;;;;;5030005;28;20517;-70
2021/12/21 06:58:47;;;;;;;12.40;7.90;;;8.10;99.90;;;;;;4999044;28;20049;-70
2021/12/21 07:01:13;;;;;;;11.43;7.60;;;8.10;99.90;;;;;;4972977;28;20073;-71
2021/12/21 07:03:41;;;;;;;12.13;7.82;;;8.10;99.90;;;;;;4980062;28;20034;-71
2021/12/21 07:06:08;;;;;;;12.98;8.10;;;8.10;99.90;;;;;;4999256;28;20137;-71
2021/12/21 07:08:47;;;;;;;11.85;7.65;;;8.20;99.90;;;;;;4981546;28;20031;-71
2021/12/21 07:12:17;;;;;;;15.27;8.02;;;8.20;99.90;;;;;;4976377;28;20038;-70
2021/12/21 07:19:37;;;;;;;11.85;8.30;;;8.20;99.90;;;;;;4979798;28;20049;-70
2021/12/21 07:22:04;;;;;;;12.73;8.18;;;8.20;99.90;;;;;;4983642;28;20038;-72
2021/12/21 07:24:30;;;;;;;15.43;9.48;;;8.20;99.90;;;;;;4982116;28;20074;-70
2021/12/21 07:26:57;;;;;;;18.25;10.13;;;8.30;99.90;;;;;;4970155;28;20461;-71
2021/12/21 07:29:25;;;;;;;17.77;10.20;;;8.30;99.90;;;;;;4992576;28;20128;-71
2021/12/21 07:31:51;;;;;;;19.95;9.98;;;8.30;99.90;;;;;;4974193;28;20094;-71
2021/12/21 07:34:17;;;;;;;19.45;11.23;;;8.30;99.90;;;;;;4981427;28;20073;-70
2021/12/21 07:36:43;;;;;;;22.95;11.40;;;8.40;99.90;;;;;;4981425;28;20076;-71
2021/12/21 07:39:12;;;;;;;22.05;12.52;;;8.50;99.90;;;;;;4976987;28;20627;-71
2021/12/21 07:41:39;;;;;;;20.15;13.20;;;8.60;99.90;;;;;;4994902;28;20166;-72
2021/12/21 07:44:06;;;;;;;20.88;12.55;;;8.60;99.90;;;;;;4991665;28;20109;-72
2021/12/21 07:46:31;;;;;;;18.27;12.77;;;8.70;99.90;;;;;;4976675;28;20475;-70
2021/12/21 07:48:57;;;;;;;24.10;14.18;;;8.80;99.90;;;;;;4979629;28;20049;-72
2021/12/21 07:51:24;;;;;;;19.73;14.20;;;8.80;99.90;;;;;;4977608;28;20122;-72
2021/12/21 07:53:51;;;;;;;23.70;14.07;;;8.80;99.90;;;;;;4977500;28;20134;-71
2021/12/21 07:56:17;;;;;;;23.23;14.93;;;8.90;99.90;;;;;;4981057;28;20043;-71
2021/12/21 07:58:45;;;;;;;27.40;16.63;;;9.10;99.90;;;;;;5014427;28;20109;-70
2021/12/21 08:01:12;;;;;;;27.50;16.25;;;9.10;99.90;;;;;;4992669;28;20130;-71
2021/12/21 08:03:38;;;;;;;22.33;13.57;;;9.20;99.90;;;;;;5011375;28;20084;-71
2021/12/21 08:06:07;;;;;;;28.40;15.40;;;9.40;99.90;;;;;;4993996;28;20034;-71
2021/12/21 08:08:35;;;;;;;28.67;16.42;;;9.50;99.90;;;;;;4974733;28;20027;-71
2021/12/21 08:11:15;;;;;;;28.88;16.38;;;9.60;99.90;;;;;;4976447;28;20455;-71
2021/12/21 08:13:46;;;;;;;30.35;16.77;;;9.70;99.90;;;;;;5008429;28;20050;-71
2021/12/21 08:16:13;;;;;;;27.48;15.65;;;10.20;99.90;;;;;;4991683;28;20026;-71
2021/12/21 08:18:40;;;;;;;23.63;16.50;;;10.80;99.90;;;;;;5013336;28;20034;-73
2021/12/21 08:21:07;;;;;;;30.23;16.90;;;11.10;99.90;;;;;;4981969;28;20158;-70
2021/12/21 08:23:33;;;;;;;24.33;16.10;;;11.60;99.90;;;;;;4982720;28;20093;-72
2021/12/21 08:25:59;;;;;;;22.80;15.23;;;11.90;99.90;;;;;;4968658;28;20400;-74
2021/12/21 08:28:26;;;;;;;23.27;14.68;;;12.50;99.90;;;;;;4972038;28;20386;-71
2021/12/21 08:30:52;;;;;;;24.75;15.00;;;12.70;99.90;;;;;;4975556;28;20038;-71
2021/12/21 08:33:19;;;;;;;21.40;14.35;;;13.00;99.90;;;;;;4970964;28;20042;-73
2021/12/21 08:35:46;;;;;;;21.95;14.30;;;13.40;99.90;;;;;;4989613;28;20030;-71
2021/12/21 08:38:16;;;;;;;22.05;14.18;;;13.80;99.90;;;;;;4992402;28;20042;-70
2021/12/21 08:40:46;;;;;;;18.52;12.73;;;14.10;99.90;;;;;;4986969;28;20034;-71
2021/12/21 08:43:15;;;;;;;20.63;13.40;;;14.40;99.90;;;;;;4971969;28;20042;-72
2021/12/21 08:45:43;;;;;;;23.42;14.85;;;14.20;99.90;;;;;;4989953;28;20072;-70
2021/12/21 08:48:11;;;;;;;20.60;13.57;;;13.60;99.90;;;;;;4982561;28;20519;-71
2021/12/21 08:50:38;;;;;;;25.42;14.32;;;13.00;99.90;;;;;;4973230;28;20030;-72
2021/12/21 08:53:04;;;;;;;25.38;14.30;;;12.30;99.90;;;;;;4967606;28;20043;-71
2021/12/21 08:55:30;;;;;;;17.88;13.60;;;12.00;99.90;;;;;;4988922;28;20045;-71
2021/12/21 08:57:57;;;;;;;21.00;14.15;;;11.80;99.90;;;;;;4987576;28;20035;-71
2021/12/21 09:00:24;;;;;;;23.38;14.10;;;11.70;99.90;;;;;;4990259;28;20037;-71
2021/12/21 09:02:51;;;;;;;22.25;13.35;;;11.60;99.90;;;;;;4976334;28;20042;-71
2021/12/21 09:05:21;;;;;;;27.10;14.27;;;11.60;99.90;;;;;;4969916;28;22366;-70
2021/12/21 09:07:49;;;;;;;21.65;13.35;;;11.70;99.90;;;;;;4966474;28;20038;-73
2021/12/21 09:10:18;;;;;;;18.95;13.45;;;11.80;99.90;;;;;;4983546;28;20045;-71
2021/12/21 09:12:45;;;;;;;20.90;14.25;;;11.90;99.90;;;;;;4987854;28;20106;-72
2021/12/21 09:15:14;;;;;;;23.33;13.65;;;12.10;99.90;;;;;;4996871;28;20061;-71
2021/12/21 09:17:41;;;;;;;20.30;14.65;;;12.40;99.90;;;;;;4992167;28;20827;-72
2021/12/21 09:20:10;;;;;;;19.90;14.18;;;12.50;99.90;;;;;;4977719;28;20043;-73
2021/12/21 09:22:39;;;;;;;22.25;13.95;;;12.80;99.90;;;;;;4980459;28;20486;-73
2021/12/21 09:25:06;;;;;;;19.30;14.57;;;13.10;99.90;;;;;;4986488;28;20524;-72
2021/12/21 09:27:32;;;;;;;20.00;13.77;;;13.30;99.90;;;;;;4980296;28;20053;-72
2021/12/21 09:29:58;;;;;;;30.50;14.68;;;13.70;99.90;;;;;;4946944;28;20055;-73
2021/12/21 09:32:25;;;;;;;21.25;13.52;;;13.90;99.90;;;;;;4968103;28;20102;-73
2021/12/21 09:34:51;;;;;;;21.88;14.23;;;14.20;99.90;;;;;;4962169;28;20470;-73
2021/12/21 09:37:20;;;;;;;23.73;13.77;;;14.20;99.90;;;;;;4987488;28;20517;-72
2021/12/21 09:39:53;;;;;;;25.83;16.15;;;14.50;99.90;;;;;;4974152;28;20061;-73
2021/12/21 09:42:24;;;;;;;23.20;13.50;;;14.60;99.90;;;;;;4982590;28;20062;-72
2021/12/21 09:44:51;;;;;;;20.90;13.50;;;15.00;99.90;;;;;;4982722;28;28175;-73
2021/12/21 09:47:18;;;;;;;17.75;12.82;;;15.20;99.90;;;;;;4952589;28;20296;-72
2021/12/21 09:49:46;;;;;;;19.17;12.35;;;15.30;99.90;;;;;;5009518;28;20025;-72
2021/12/21 09:52:13;;;;;;;17.73;12.63;;;15.30;99.90;;;;;;4996876;28;20104;-72
2021/12/21 09:54:40;;;;;;;22.35;13.32;;;15.50;99.90;;;;;;4978357;28;20510;-72
2021/12/21 09:57:08;;;;;;;20.35;12.90;;;15.60;99.90;;;;;;4974794;28;20084;-75
2021/12/21 09:59:36;;;;;;;20.38;14.20;;;15.80;99.90;;;;;;4986139;28;20038;-72
2021/12/21 10:02:03;;;;;;;19.63;13.38;;;16.00;99.90;;;;;;5003430;28;20120;-73
2021/12/21 10:04:29;;;;;;;18.83;12.77;;;16.10;99.90;;;;;;5005380;28;20042;-71
2021/12/21 10:06:58;;;;;;;23.35;13.63;;;16.10;99.90;;;;;;5019048;28;20088;-75
2021/12/21 10:09:34;;;;;;;20.15;13.85;;;15.90;99.90;;;;;;5022043;28;20046;-72
2021/12/21 10:12:01;;;;;;;17.55;13.88;;;16.20;99.90;;;;;;4995875;28;20074;-75
2021/12/21 10:14:27;;;;;;;24.20;14.32;;;16.30;99.90;;;;;;5001964;28;20035;-75
2021/12/21 10:17:10;;;;;;;20.90;14.63;;;16.60;99.90;;;;;;5003186;28;20050;-72
2021/12/21 10:19:46;;;;;;;21.08;13.93;;;16.50;99.90;;;;;;4998303;28;20070;-73
2021/12/21 10:22:15;;;;;;;20.17;13.38;;;16.40;99.90;;;;;;4985726;28;21131;-72
2021/12/21 10:24:50;;;;;;;20.63;14.27;;;16.10;99.90;;;;;;4982966;28;20042;-72
2021/12/21 10:27:19;;;;;;;21.08;14.77;;;15.80;99.90;;;;;;4981648;28;20030;-72
2021/12/21 10:29:56;;;;;;;24.17;14.65;;;15.10;99.90;;;;;;4973809;28;20172;-73
2021/12/21 10:32:26;;;;;;;20.55;13.93;;;15.10;99.90;;;;;;4983996;28;20077;-73
2021/12/21 10:34:59;;;;;;;19.20;13.52;;;15.70;99.90;;;;;;4985194;28;20039;-72
2021/12/21 10:37:34;;;;;;;19.25;13.95;;;15.70;99.90;;;;;;4992531;28;20031;-72
2021/12/21 10:40:26;;;;;;;18.23;13.90;;;15.50;99.90;;;;;;4972389;28;21713;-74
2021/12/21 10:42:58;;;;;;;21.40;13.85;;;15.40;99.90;;;;;;5007792;28;20046;-72
2021/12/21 10:45:29;;;;;;;21.35;14.07;;;15.50;99.90;;;;;;4975959;28;20610;-71
2021/12/21 10:47:56;;;;;;;23.52;13.98;;;15.80;99.90;;;;;;4972472;28;20042;-72
2021/12/21 10:50:23;;;;;;;20.25;14.32;;;16.40;99.90;;;;;;4965903;28;20177;-71
2021/12/21 10:52:54;;;;;;;24.33;14.02;;;16.80;99.90;;;;;;4976294;28;20087;-72
2021/12/21 10:55:34;;;;;;;22.70;14.40;;;17.30;99.90;;;;;;4957775;28;20049;-71
2021/12/21 10:58:15;;;;;;;21.63;14.63;;;17.60;99.90;;;;;;4971335;28;20101;-71
2021/12/21 11:01:03;;;;;;;21.05;14.07;;;17.70;99.90;;;;;;4974599;28;20431;-71
2021/12/21 11:03:40;;;;;;;22.65;14.52;;;18.10;99.90;;;;;;4985717;28;20073;-73
2021/12/21 11:06:35;;;;;;;20.88;14.55;;;18.30;99.90;;;;;;4984911;28;20041;-71
2021/12/21 11:09:09;;;;;;;22.55;14.48;;;18.50;99.90;;;;;;4970369;28;20047;-71
2021/12/21 11:11:43;;;;;;;23.92;14.50;;;18.50;99.90;;;;;;4970672;28;20030;-71
2021/12/21 11:14:12;;;;;;;19.73;14.90;;;18.80;99.90;;;;;;4971883;28;20073;-71
2021/12/21 11:16:45;;;;;;;21.50;14.63;;;18.80;99.70;;;;;;4969908;28;20767;-71
2021/12/21 11:19:13;;;;;;;23.23;15.18;;;18.60;99.90;;;;;;4967365;28;20050;-71
2021/12/21 11:21:41;;;;;;;20.75;14.70;;;18.60;99.90;;;;;;4967954;28;20045;-71
2021/12/21 11:24:10;;;;;;;20.67;14.98;;;18.90;99.90;;;;;;4998212;28;20125;-70
2021/12/21 11:26:37;;;;;;;21.80;14.75;;;19.10;99.90;;;;;;4972091;28;20025;-71
2021/12/21 11:29:12;;;;;;;18.50;14.57;;;19.30;99.90;;;;;;4994789;28;20038;-72
2021/12/21 11:31:45;;;;;;;17.52;13.68;;;19.30;99.90;;;;;;4984169;28;20050;-73
2021/12/21 11:34:17;;;;;;;17.00;13.50;;;19.30;99.90;;;;;;4997805;28;20098;-72
2021/12/21 11:39:33;;;;;;;19.77;13.55;;;19.20;99.90;;;;;;4995069;28;20094;-71
2021/12/21 11:42:02;;;;;;;18.63;14.27;;;19.70;99.90;;;;;;5001768;28;20461;-71
2021/12/21 11:44:52;;;;;;;16.80;13.38;;;19.60;99.70;;;;;;4986104;28;20038;-73
2021/12/21 11:47:31;;;;;;;19.08;13.32;;;19.70;99.80;;;;;;4981767;28;20058;-72
2021/12/21 11:50:05;;;;;;;15.45;12.25;;;20.10;99.40;;;;;;4966804;28;20047;-73
2021/12/21 11:52:49;;;;;;;18.92;12.95;;;20.40;99.00;;;;;;5017834;28;20048;-72
2021/12/21 11:55:16;;;;;;;20.48;12.75;;;19.70;99.20;;;;;;4971378;28;20422;-72
2021/12/21 11:57:49;;;;;;;19.90;13.35;;;19.30;99.90;;;;;;4997483;28;20035;-71
2021/12/21 12:00:22;;;;;;;18.88;13.55;;;19.20;99.90;;;;;;4962877;28;20064;-71
2021/12/21 12:02:51;;;;;;;16.42;12.95;;;19.00;99.90;;;;;;4996137;28;20139;-71
2021/12/21 12:05:31;;;;;;;20.27;13.70;;;18.80;99.90;;;;;;4964179;28;20050;-71
2021/12/21 12:08:08;;;;;;;15.10;11.88;;;19.30;99.90;;;;;;4982319;28;20053;-72
2021/12/21 12:10:47;;;;;;;18.40;12.57;;;19.20;99.90;;;;;;4966815;28;20084;-71
2021/12/21 12:13:33;;;;;;;17.33;13.35;;;19.20;99.90;;;;;;4987276;28;20088;-70
2021/12/21 12:16:14;;;;;;;20.42;13.13;;;19.60;99.90;;;;;;5018935;28;20034;-72
2021/12/21 12:18:49;;;;;;;17.33;12.48;;;20.20;99.40;;;;;;5017872;28;20060;-71
2021/12/21 12:21:17;;;;;;;18.65;13.40;;;20.00;99.50;;;;;;4994157;28;20046;-73
2021/12/21 12:23:56;;;;;;;26.67;12.93;;;20.00;99.30;;;;;;4967728;28;20069;-71
2021/12/21 12:26:29;;;;;;;23.20;12.30;;;20.50;99.00;;;;;;4976879;28;20212;-71
2021/12/21 12:28:58;;;;;;;20.95;13.75;;;20.10;99.30;;;;;;4987592;28;20685;-72
2021/12/21 12:31:47;;;;;;;23.83;13.98;;;20.20;98.80;;;;;;4983397;28;20053;-71
2021/12/21 12:34:28;;;;;;;20.48;14.00;;;19.50;99.60;;;;;;4985926;28;20575;-72
2021/12/21 12:36:55;;;;;;;23.60;13.23;;;19.20;99.90;;;;;;4976671;28;20030;-71
2021/12/21 12:39:43;;;;;;;15.65;12.00;;;19.10;99.90;;;;;;4982443;28;20039;-72
2021/12/21 12:42:17;;;;;;;16.77;11.63;;;18.60;99.90;;;;;;4967888;28;20109;-71
2021/12/21 12:44:45;;;;;;;17.63;11.73;;;17.60;99.90;;;;;;4968999;28;20041;-72
2021/12/21 12:47:14;;;;;;;17.05;11.27;;;17.10;99.90;;;;;;4998587;28;20968;-72
2021/12/21 12:49:55;;;;;;;18.58;12.27;;;16.60;99.90;;;;;;4970603;28;20042;-71
2021/12/21 12:52:31;;;;;;;17.58;12.07;;;16.20;99.90;;;;;;4961512;28;20042;-71
2021/12/21 12:55:01;;;;;;;16.67;12.35;;;16.00;99.90;;;;;;4988731;28;20039;-71
2021/12/21 12:57:40;;;;;;;18.70;12.55;;;15.90;99.90;;;;;;4982618;28;20394;-74
2021/12/21 13:00:09;;;;;;;19.75;13.60;;;15.80;99.90;;;;;;4974268;28;20517;-71
2021/12/21 13:02:35;;;;;;;18.80;13.68;;;15.80;99.90;;;;;;4971773;28;20038;-71
2021/12/21 13:05:10;;;;;;;21.67;14.25;;;15.90;99.90;;;;;;4994938;28;20053;-71
2021/12/21 13:07:36;;;;;;;19.58;13.10;;;16.20;99.90;;;;;;4996352;28;20030;-72
2021/12/21 13:10:10;;;;;;;21.45;13.88;;;16.20;99.90;;;;;;4993066;28;20368;-72
2021/12/21 13:12:37;;;;;;;22.90;14.10;;;15.90;99.90;;;;;;4989776;28;20035;-71
2021/12/21 13:15:06;;;;;;;22.60;14.95;;;15.90;99.90;;;;;;4979327;28;20120;-71
2021/12/21 13:17:33;;;;;;;20.90;14.40;;;15.70;99.90;;;;;;4984494;28;20046;-72
2021/12/21 13:20:00;;;;;;;19.52;13.18;;;15.50;99.90;;;;;;5013879;28;20042;-71
2021/12/21 13:22:28;;;;;;;21.88;13.43;;;15.30;99.90;;;;;;5019532;28;20080;-72
2021/12/21 13:24:55;;;;;;;20.73;12.65;;;15.10;99.90;;;;;;4981233;28;20394;-71
2021/12/21 13:27:24;;;;;;;21.10;13.25;;;15.00;99.90;;;;;;5007281;28;20033;-72
2021/12/21 13:29:52;;;;;;;21.17;14.63;;;14.90;99.90;;;;;;4982964;28;20034;-70
2021/12/21 13:32:22;;;;;;;19.45;13.23;;;14.80;99.90;;;;;;5010485;28;20042;-71
2021/12/21 13:34:53;;;;;;;20.73;13.82;;;14.60;99.90;;;;;;5004410;28;20434;-73
2021/12/21 13:37:22;;;;;;;21.80;13.25;;;14.70;99.90;;;;;;4996267;28;20058;-72
2021/12/21 13:39:57;;;;;;;20.27;13.70;;;14.70;99.90;;;;;;5013572;28;20043;-72
2021/12/21 13:42:27;;;;;;;24.45;13.77;;;14.70;99.90;;;;;;4978184;28;20045;-69
2021/12/21 13:44:56;;;;;;;21.98;14.38;;;14.70;99.90;;;;;;4999014;28;20034;-71
2021/12/21 13:47:34;;;;;;;21.95;14.55;;;14.70;99.90;;;;;;4984518;28;20096;-71
2021/12/21 13:50:10;;;;;;;19.35;13.13;;;14.60;99.90;;;;;;5010893;28;20035;-72
2021/12/21 13:52:39;;;;;;;25.20;14.00;;;14.40;99.90;;;;;;5017553;28;20038;-70
2021/12/21 13:55:29;;;;;;;20.95;14.13;;;14.40;99.90;;;;;;4981850;28;20045;-72